РУС

ENG

 
  Pireps - S7
 

Рейс SBI1028

  • Выполнял: Valeriy Volkov
  • Аэропорт отправления: Pulkovo Airport (ULLI)
  • Аэропорт назначения: Domodedovo Airport (UUDD)
  • Тип ВС: B737-800 (VQ-BVK)
  • Время полёта: 01.08
  • Дата полёта: 27.03.2021
  • Маршрут: SUGIN R904 KANET T576 NAMIN
  • Статус: Одобрен

Детали полёта
Gross Revenue:
(121 load / $ 125.00 per unit
$ 15, 125.00
Fuel Cost:
(3386 fuel used @ 5.1 / unit)
$ 17, 268.60


Дополнительная информация о полёте:

Лог

Aircraft Used in flight is B737-800X AXP Skyteam Delta N3765 737-800
23:55Flaps 3 Selected at 90ft and 0kts
23:55 Boarding
23:55 Engine 1 Started
23:55 Engine 2 Started
23:55 Strobe Lights ON at 90 AGL
23:55 Navigation Lights ON at 90 AGL
23:55 Beacon Lights ON at 90 AGL
23:55 Brakes are On
23:56 Brakes are Released
23:57 Brakes are On
23:57 Brakes are Released
23:58 Brakes are On
23:58 Brakes are Released
23:59 Landing Lights ON at 80 AGL
23:59 You Took off @ 172 Knots and Flaps at Position 3
Departure Weather
ULLI 262030Z VRB01MPS 3400 1300NW BR FEW005 M00/M02 Q1019 R10R/290050 TEMPO 0400 FG SCT004 RMK OBST OBSC
00:00 Landing Gear Up @ 192 Knots and 220 Feet
00:00 Brakes are On
00:01Flaps 2 Selected at 4260ft and 204kts
00:01Flaps Retracted at 4680ft and 243kts
00:01 Below 10000 feet you are not allowed to go over 250 knots
00:02 Landing Lights OFF at 9970 AGL
00:14 TOC Reached
00:52 Landing Lights ON at 9070 AGL
00:53 You exceeded maximum bank angle
00:56Flaps 2 Selected at 3390ft and 197kts
00:56Flaps 3 Selected at 3390ft and 197kts
00:56 Landing Gear Down @ 197 Knots and 3390 Feet
00:57 Brakes are Released
00:57Flaps 4 Selected at 3390ft and 196kts
00:57Flaps 5 Selected at 3390ft and 196kts
00:58Flaps 6 Selected at 3390ft and 169kts
00:58Flaps 7 Selected at 3390ft and 169kts
00:58Flaps 8 Selected at 3430ft and 157kts
01:04 You Landed @ 122 Knots and with -200 Vertical Speed
Arrival Weather
UUDD 262030Z 29003MPS 9999 SCT039CB 04/00 Q1017 R88/190050 NOSIG
01:04 Brakes are On
Pirep logged with S7 Tracking 1.0.0.14



Общая оценка полета : 100%




Route Map



 
 
   
 
Новости

03.09.2020 - Полеты в MFS 2020

Спешим сообщить вам, что теперь наш S7 Pad поддерживается для полетов в новом симуляторе MFS 2020. В разделе Загрузки вы найдете FSUIPC7.rar
Инструкция для запуска прилагается!

   
 
Авторизация






Регистрация

Восстановить пароль?

Мы в соц. сетях

      



   
 





   
 


   
 


Яндекс.Метрика

www.va-s7.ru 2011-2021
Все права защищены.



Минуточку внимания!
Сайт va-s7.ru не является коммерческим проектом. Мы не имеем отношения к торговым маркам "S7" и "Globus" и их представителям.
Эмблемы на сайте являются собственностью соответствующих компаний.

аэронавигационная метеорологическая и любая другая информация с данного ресурса ни в коем случае не должна использоваться для реальных полетов